sensor_id;sensor_type;location;lat;lon;timestamp;pressure;altitude;pressure_sealevel;temperature;humidity
12969;BME280;6549;53.128;8.182;2023-02-23T00:02:20;100951.84;;;6.51;100.00
12969;BME280;6549;53.128;8.182;2023-02-23T00:05:21;100942.84;;;6.51;100.00
12969;BME280;6549;53.128;8.182;2023-02-23T00:08:22;100955.72;;;6.50;100.00
12969;BME280;6549;53.128;8.182;2023-02-23T00:11:23;100957.66;;;6.50;100.00
12969;BME280;6549;53.128;8.182;2023-02-23T00:14:26;100953.00;;;6.50;100.00
12969;BME280;6549;53.128;8.182;2023-02-23T00:17:26;100963.94;;;6.50;100.00
12969;BME280;6549;53.128;8.182;2023-02-23T00:20:27;100963.13;;;6.50;100.00
12969;BME280;6549;53.128;8.182;2023-02-23T00:23:27;100960.41;;;6.50;100.00
12969;BME280;6549;53.128;8.182;2023-02-23T00:26:29;100965.47;;;6.51;100.00
12969;BME280;6549;53.128;8.182;2023-02-23T00:29:31;100960.03;;;6.51;100.00
12969;BME280;6549;53.128;8.182;2023-02-23T00:32:37;100974.22;;;6.57;100.00
12969;BME280;6549;53.128;8.182;2023-02-23T00:35:38;100970.69;;;6.56;100.00
12969;BME280;6549;53.128;8.182;2023-02-23T00:38:39;100967.94;;;6.56;100.00
12969;BME280;6549;53.128;8.182;2023-02-23T00:41:40;100968.41;;;6.58;100.00
12969;BME280;6549;53.128;8.182;2023-02-23T00:44:41;100964.16;;;6.61;100.00
12969;BME280;6549;53.128;8.182;2023-02-23T00:47:43;100971.22;;;6.62;100.00
12969;BME280;6549;53.128;8.182;2023-02-23T00:50:43;100975.16;;;6.64;100.00
12969;BME280;6549;53.128;8.182;2023-02-23T00:53:44;100975.63;;;6.66;100.00
12969;BME280;6549;53.128;8.182;2023-02-23T00:56:45;100973.31;;;6.68;100.00
12969;BME280;6549;53.128;8.182;2023-02-23T00:59:45;100975.34;;;6.71;100.00
12969;BME280;6549;53.128;8.182;2023-02-23T01:02:47;100980.81;;;6.71;100.00
12969;BME280;6549;53.128;8.182;2023-02-23T01:05:47;100976.16;;;6.72;100.00
12969;BME280;6549;53.128;8.182;2023-02-23T01:08:51;100970.78;;;6.75;100.00
12969;BME280;6549;53.128;8.182;2023-02-23T01:11:56;100971.19;;;6.77;100.00
12969;BME280;6549;53.128;8.182;2023-02-23T01:14:56;100963.44;;;6.80;100.00
12969;BME280;6549;53.128;8.182;2023-02-23T01:17:56;100966.59;;;6.82;100.00
12969;BME280;6549;53.128;8.182;2023-02-23T01:20:57;100961.94;;;6.82;100.00
12969;BME280;6549;53.128;8.182;2023-02-23T01:23:58;100954.53;;;6.83;100.00
12969;BME280;6549;53.128;8.182;2023-02-23T01:26:58;100970.22;;;6.86;100.00
12969;BME280;6549;53.128;8.182;2023-02-23T01:29:58;100967.91;;;6.88;100.00
12969;BME280;6549;53.128;8.182;2023-02-23T01:32:59;100970.31;;;6.89;100.00
12969;BME280;6549;53.128;8.182;2023-02-23T01:36:01;100977.00;;;6.92;100.00
12969;BME280;6549;53.128;8.182;2023-02-23T01:39:03;100975.84;;;6.93;100.00
12969;BME280;6549;53.128;8.182;2023-02-23T01:42:11;100974.25;;;6.92;100.00
12969;BME280;6549;53.128;8.182;2023-02-23T01:48:36;100965.00;;;6.96;100.00
12969;BME280;6549;53.128;8.182;2023-02-23T01:51:42;100954.88;;;6.97;100.00
12969;BME280;6549;53.128;8.182;2023-02-23T01:54:48;100962.34;;;7.00;100.00
12969;BME280;6549;53.128;8.182;2023-02-23T01:57:53;100962.00;;;7.01;100.00
12969;BME280;6549;53.128;8.182;2023-02-23T02:00:57;100962.00;;;7.01;100.00
12969;BME280;6549;53.128;8.182;2023-02-23T02:04:02;100956.97;;;7.03;100.00
12969;BME280;6549;53.128;8.182;2023-02-23T02:07:06;100961.72;;;7.06;100.00
12969;BME280;6549;53.128;8.182;2023-02-23T02:10:07;100956.25;;;7.06;100.00
12969;BME280;6549;53.128;8.182;2023-02-23T02:13:14;100962.88;;;7.05;100.00
12969;BME280;6549;53.128;8.182;2023-02-23T02:24:05;100956.19;;;7.03;100.00
12969;BME280;6549;53.128;8.182;2023-02-23T02:28:12;100955.38;;;7.02;100.00
12969;BME280;6549;53.128;8.182;2023-02-23T02:41:17;100947.00;;;6.95;100.00
12969;BME280;6549;53.128;8.182;2023-02-23T02:44:37;100953.66;;;6.94;100.00
12969;BME280;6549;53.128;8.182;2023-02-23T02:47:45;100955.59;;;6.94;100.00
12969;BME280;6549;53.128;8.182;2023-02-23T02:54:08;100961.06;;;6.94;100.00
12969;BME280;6549;53.128;8.182;2023-02-23T02:57:12;100952.84;;;6.94;100.00
12969;BME280;6549;53.128;8.182;2023-02-23T03:00:17;100954.44;;;6.95;100.00
12969;BME280;6549;53.128;8.182;2023-02-23T03:03:39;100957.94;;;6.95;100.00
12969;BME280;6549;53.128;8.182;2023-02-23T03:07:03;100957.94;;;6.95;100.00
12969;BME280;6549;53.128;8.182;2023-02-23T03:10:33;100954.44;;;6.95;100.00
12969;BME280;6549;53.128;8.182;2023-02-23T03:17:44;100966.50;;;6.94;100.00
12969;BME280;6549;53.128;8.182;2023-02-23T03:21:12;100963.78;;;6.94;100.00
12969;BME280;6549;53.128;8.182;2023-02-23T03:24:48;100968.44;;;6.93;100.00
12969;BME280;6549;53.128;8.182;2023-02-23T03:31:39;100967.66;;;6.93;100.00
12969;BME280;6549;53.128;8.182;2023-02-23T03:35:08;100975.84;;;6.93;100.00
12969;BME280;6549;53.128;8.182;2023-02-23T03:38:42;100970.72;;;6.91;100.00
12969;BME280;6549;53.128;8.182;2023-02-23T03:42:10;100966.00;;;6.88;100.00
12969;BME280;6549;53.128;8.182;2023-02-23T03:45:31;100974.97;;;6.89;100.00
12969;BME280;6549;53.128;8.182;2023-02-23T03:48:51;100972.59;;;6.87;100.00
12969;BME280;6549;53.128;8.182;2023-02-23T03:52:15;100974.97;;;6.89;100.00
12969;BME280;6549;53.128;8.182;2023-02-23T03:55:39;100986.25;;;6.87;100.00
12969;BME280;6549;53.128;8.182;2023-02-23T03:59:02;100984.66;;;6.86;100.00
12969;BME280;6549;53.128;8.182;2023-02-23T04:02:25;100990.13;;;6.86;100.00
12969;BME280;6549;53.128;8.182;2023-02-23T04:05:46;100988.19;;;6.87;100.00
12969;BME280;6549;53.128;8.182;2023-02-23T04:09:06;100993.66;;;6.87;100.00
12969;BME280;6549;53.128;8.182;2023-02-23T04:12:31;100990.13;;;6.86;100.00
12969;BME280;6549;53.128;8.182;2023-02-23T04:15:53;100994.81;;;6.86;100.00
12969;BME280;6549;53.128;8.182;2023-02-23T04:18:55;100990.50;;;6.85;100.00
12969;BME280;6549;53.128;8.182;2023-02-23T04:21:55;100994.03;;;6.85;100.00
12969;BME280;6549;53.128;8.182;2023-02-23T04:24:56;101004.56;;;6.87;100.00
12969;BME280;6549;53.128;8.182;2023-02-23T04:27:56;100995.97;;;6.85;100.00
12969;BME280;6549;53.128;8.182;2023-02-23T04:30:56;100991.97;;;6.82;100.00
12969;BME280;6549;53.128;8.182;2023-02-23T04:33:56;100991.19;;;6.82;100.00
12969;BME280;6549;53.128;8.182;2023-02-23T04:36:57;100996.66;;;6.82;100.00
12969;BME280;6549;53.128;8.182;2023-02-23T04:39:57;100992.34;;;6.81;100.00
12969;BME280;6549;53.128;8.182;2023-02-23T04:42:58;100991.56;;;6.80;100.00
12969;BME280;6549;53.128;8.182;2023-02-23T04:45:58;100996.94;;;6.76;100.00
12969;BME280;6549;53.128;8.182;2023-02-23T04:48:58;101004.34;;;6.76;100.00
12969;BME280;6549;53.128;8.182;2023-02-23T04:51:58;101000.34;;;6.73;100.00
12969;BME280;6549;53.128;8.182;2023-02-23T04:54:59;100999.94;;;6.71;100.00
12969;BME280;6549;53.128;8.182;2023-02-23T04:58:00;101001.06;;;6.70;100.00
12969;BME280;6549;53.128;8.182;2023-02-23T05:01:05;101002.66;;;6.71;100.00
12969;BME280;6549;53.128;8.182;2023-02-23T05:04:06;101013.59;;;6.71;100.00
12969;BME280;6549;53.128;8.182;2023-02-23T05:07:06;101004.16;;;6.69;100.00
12969;BME280;6549;53.128;8.182;2023-02-23T05:10:07;101005.75;;;6.70;100.00
12969;BME280;6549;53.128;8.182;2023-02-23T05:13:07;101001.78;;;6.67;100.00
12969;BME280;6549;53.128;8.182;2023-02-23T05:16:07;101012.34;;;6.69;100.00
12969;BME280;6549;53.128;8.182;2023-02-23T05:19:08;101008.81;;;6.68;100.00
12969;BME280;6549;53.128;8.182;2023-02-23T05:22:08;101005.31;;;6.68;100.00
12969;BME280;6549;53.128;8.182;2023-02-23T05:25:11;101003.72;;;6.67;100.00
12969;BME280;6549;53.128;8.182;2023-02-23T05:28:11;101009.97;;;6.67;100.00
12969;BME280;6549;53.128;8.182;2023-02-23T05:31:12;101004.84;;;6.66;100.00
12969;BME280;6549;53.128;8.182;2023-02-23T05:34:12;101015.44;;;6.67;100.00
12969;BME280;6549;53.128;8.182;2023-02-23T05:37:13;101009.97;;;6.67;100.00
12969;BME280;6549;53.128;8.182;2023-02-23T05:40:13;101018.16;;;6.67;100.00
12969;BME280;6549;53.128;8.182;2023-02-23T05:43:14;101012.72;;;6.67;100.00
12969;BME280;6549;53.128;8.182;2023-02-23T05:46:17;101015.44;;;6.67;100.00
12969;BME280;6549;53.128;8.182;2023-02-23T05:49:18;101018.16;;;6.67;100.00
12969;BME280;6549;53.128;8.182;2023-02-23T05:52:18;101023.97;;;6.66;100.00
12969;BME280;6549;53.128;8.182;2023-02-23T05:55:19;101027.50;;;6.66;100.00
12969;BME280;6549;53.128;8.182;2023-02-23T05:58:19;101027.50;;;6.66;100.00
12969;BME280;6549;53.128;8.182;2023-02-23T06:01:20;101026.72;;;6.66;100.00
12969;BME280;6549;53.128;8.182;2023-02-23T06:04:20;101029.09;;;6.67;100.00
12969;BME280;6549;53.128;8.182;2023-02-23T06:07:22;101030.22;;;6.66;100.00
12969;BME280;6549;53.128;8.182;2023-02-23T06:10:23;101031.81;;;6.67;100.00
12969;BME280;6549;53.128;8.182;2023-02-23T06:13:23;101039.22;;;6.67;100.00
12969;BME280;6549;53.128;8.182;2023-02-23T06:16:24;101036.13;;;6.68;100.00
12969;BME280;6549;53.128;8.182;2023-02-23T06:19:24;101037.28;;;6.67;100.00
12969;BME280;6549;53.128;8.182;2023-02-23T06:22:24;101039.22;;;6.67;100.00
12969;BME280;6549;53.128;8.182;2023-02-23T06:25:25;101048.22;;;6.67;100.00
12969;BME280;6549;53.128;8.182;2023-02-23T06:28:26;101049.78;;;6.68;100.00
12969;BME280;6549;53.128;8.182;2023-02-23T06:31:27;101044.31;;;6.68;100.00
12969;BME280;6549;53.128;8.182;2023-02-23T06:34:27;101050.56;;;6.69;100.00
12969;BME280;6549;53.128;8.182;2023-02-23T06:37:28;101053.66;;;6.67;100.00
12969;BME280;6549;53.128;8.182;2023-02-23T06:40:28;101057.97;;;6.68;100.00
12969;BME280;6549;53.128;8.182;2023-02-23T06:43:29;101057.19;;;6.68;100.00
12969;BME280;6549;53.128;8.182;2023-02-23T06:46:30;101057.97;;;6.68;100.00
12969;BME280;6549;53.128;8.182;2023-02-23T06:49:32;101057.97;;;6.68;100.00
12969;BME280;6549;53.128;8.182;2023-02-23T06:52:32;101069.34;;;6.70;100.00
12969;BME280;6549;53.128;8.182;2023-02-23T06:55:33;101057.97;;;6.68;100.00
12969;BME280;6549;53.128;8.182;2023-02-23T06:58:33;101062.66;;;6.68;100.00
12969;BME280;6549;53.128;8.182;2023-02-23T07:01:33;101061.88;;;6.67;100.00
12969;BME280;6549;53.128;8.182;2023-02-23T07:04:34;101067.66;;;6.66;100.00
12969;BME280;6549;53.128;8.182;2023-02-23T07:07:34;101072.78;;;6.67;100.00
12969;BME280;6549;53.128;8.182;2023-02-23T07:10:35;101082.13;;;6.66;100.00
12969;BME280;6549;53.128;8.182;2023-02-23T07:13:35;101079.38;;;6.66;100.00
12969;BME280;6549;53.128;8.182;2023-02-23T07:16:36;101086.78;;;6.66;100.00
12969;BME280;6549;53.128;8.182;2023-02-23T07:19:37;101076.66;;;6.66;100.00
12969;BME280;6549;53.128;8.182;2023-02-23T07:22:38;101082.13;;;6.66;100.00
12969;BME280;6549;53.128;8.182;2023-02-23T07:25:38;101072.34;;;6.65;100.00
12969;BME280;6549;53.128;8.182;2023-02-23T07:28:38;101080.53;;;6.65;100.00
12969;BME280;6549;53.128;8.182;2023-02-23T07:31:39;101077.78;;;6.65;100.00
12969;BME280;6549;53.128;8.182;2023-02-23T07:34:40;101080.53;;;6.65;100.00
12969;BME280;6549;53.128;8.182;2023-02-23T07:37:40;101089.19;;;6.67;100.00
12969;BME280;6549;53.128;8.182;2023-02-23T07:40:41;101097.78;;;6.69;100.00
12969;BME280;6549;53.128;8.182;2023-02-23T07:43:41;101099.72;;;6.69;100.00
12969;BME280;6549;53.128;8.182;2023-02-23T07:46:42;101097.78;;;6.69;100.00
12969;BME280;6549;53.128;8.182;2023-02-23T07:49:45;101109.19;;;6.71;100.00
12969;BME280;6549;53.128;8.182;2023-02-23T07:52:45;101118.16;;;6.72;100.00
12969;BME280;6549;53.128;8.182;2023-02-23T07:55:54;101121.31;;;6.74;100.00
12969;BME280;6549;53.128;8.182;2023-02-23T07:58:55;101120.53;;;6.73;100.00
12969;BME280;6549;53.128;8.182;2023-02-23T08:01:55;101114.72;;;6.75;100.00
12969;BME280;6549;53.128;8.182;2023-02-23T08:04:55;101120.66;;;6.77;100.00
12969;BME280;6549;53.128;8.182;2023-02-23T08:07:57;101125.75;;;6.78;100.00
12969;BME280;6549;53.128;8.182;2023-02-23T08:11:01;101124.59;;;6.80;100.00
12969;BME280;6549;53.128;8.182;2023-02-23T08:14:02;101130.47;;;6.82;100.00
12969;BME280;6549;53.128;8.182;2023-02-23T08:17:02;101136.41;;;6.84;100.00
12969;BME280;6549;53.128;8.182;2023-02-23T08:20:04;101136.41;;;6.84;100.00
12969;BME280;6549;53.128;8.182;2023-02-23T08:23:05;101133.69;;;6.84;100.00
12969;BME280;6549;53.128;8.182;2023-02-23T08:26:05;101134.81;;;6.83;100.00
12969;BME280;6549;53.128;8.182;2023-02-23T08:29:06;101134.47;;;6.84;100.00
12969;BME280;6549;53.128;8.182;2023-02-23T08:32:06;101137.63;;;6.86;100.00
12969;BME280;6549;53.128;8.182;2023-02-23T08:35:08;101131.03;;;6.87;100.00
12969;BME280;6549;53.128;8.182;2023-02-23T08:38:09;101136.50;;;6.87;100.00
12969;BME280;6549;53.128;8.182;2023-02-23T08:41:09;101137.28;;;6.88;100.00
12969;BME280;6549;53.128;8.182;2023-02-23T08:44:10;101139.69;;;6.89;100.00
12969;BME280;6549;53.128;8.182;2023-02-23T08:47:10;101143.63;;;6.92;100.00
12969;BME280;6549;53.128;8.182;2023-02-23T08:50:11;101144.09;;;6.94;100.00
12969;BME280;6549;53.128;8.182;2023-02-23T08:53:12;101144.53;;;6.96;100.00
12969;BME280;6549;53.128;8.182;2023-02-23T08:56:13;101139.84;;;6.96;100.00
12969;BME280;6549;53.128;8.182;2023-02-23T08:59:14;101139.06;;;6.96;100.00
12969;BME280;6549;53.128;8.182;2023-02-23T09:02:14;101149.31;;;6.99;100.00
12969;BME280;6549;53.128;8.182;2023-02-23T09:05:16;101148.50;;;6.98;100.00
12969;BME280;6549;53.128;8.182;2023-02-23T09:08:16;101147.72;;;6.98;100.00
12969;BME280;6549;53.128;8.182;2023-02-23T09:11:16;101149.31;;;6.99;100.00
12969;BME280;6549;53.128;8.182;2023-02-23T09:14:17;101149.31;;;6.99;100.00
12969;BME280;6549;53.128;8.182;2023-02-23T09:17:17;101151.25;;;6.98;100.00
12969;BME280;6549;53.128;8.182;2023-02-23T09:20:20;101152.91;;;7.03;100.00
12969;BME280;6549;53.128;8.182;2023-02-23T09:23:28;101154.84;;;7.02;100.00
12969;BME280;6549;53.128;8.182;2023-02-23T09:26:29;101160.31;;;7.02;100.00
12969;BME280;6549;53.128;8.182;2023-02-23T09:29:30;101152.47;;;7.01;100.00
12969;BME280;6549;53.128;8.182;2023-02-23T09:32:31;101163.38;;;7.01;100.00
12969;BME280;6549;53.128;8.182;2023-02-23T09:35:31;101154.78;;;6.99;100.00
12969;BME280;6549;53.128;8.182;2023-02-23T09:38:32;101159.44;;;6.98;100.00
12969;BME280;6549;53.128;8.182;2023-02-23T09:45:08;101166.84;;;6.98;100.00
12969;BME280;6549;53.128;8.182;2023-02-23T09:48:21;101165.69;;;6.99;100.00
12969;BME280;6549;53.128;8.182;2023-02-23T09:51:23;101164.09;;;6.98;100.00
12969;BME280;6549;53.128;8.182;2023-02-23T09:54:27;101175.13;;;7.01;100.00
12969;BME280;6549;53.128;8.182;2023-02-23T09:57:37;101175.66;;;7.07;100.00
12969;BME280;6549;53.128;8.182;2023-02-23T10:00:43;101177.75;;;7.13;100.00
12969;BME280;6549;53.128;8.182;2023-02-23T10:03:51;101173.19;;;7.17;100.00
12969;BME280;6549;53.128;8.182;2023-02-23T10:06:56;101175.56;;;7.19;100.00
12969;BME280;6549;53.128;8.182;2023-02-23T10:09:59;101176.72;;;7.18;100.00
12969;BME280;6549;53.128;8.182;2023-02-23T10:13:31;101166.56;;;7.18;100.00
12969;BME280;6549;53.128;8.182;2023-02-23T10:16:44;101182.09;;;7.14;100.00
12969;BME280;6549;53.128;8.182;2023-02-23T10:19:55;101180.16;;;7.15;100.00
12969;BME280;6549;53.128;8.182;2023-02-23T10:23:07;101181.03;;;7.19;100.00
12969;BME280;6549;53.128;8.182;2023-02-23T10:26:21;101183.78;;;7.19;100.00
12969;BME280;6549;53.128;8.182;2023-02-23T10:29:30;101189.25;;;7.19;100.00
12969;BME280;6549;53.128;8.182;2023-02-23T10:32:48;101183.94;;;7.10;100.00
12969;BME280;6549;53.128;8.182;2023-02-23T10:35:55;101193.28;;;7.09;100.00
12969;BME280;6549;53.128;8.182;2023-02-23T10:38:57;101190.13;;;7.07;100.00
12969;BME280;6549;53.128;8.182;2023-02-23T10:42:01;101183.06;;;7.06;100.00
12969;BME280;6549;53.128;8.182;2023-02-23T10:45:05;101192.47;;;7.09;100.00
12969;BME280;6549;53.128;8.182;2023-02-23T10:48:07;101188.63;;;7.10;100.00
12969;BME280;6549;53.128;8.182;2023-02-23T10:51:17;101184.19;;;7.05;100.00
12969;BME280;6549;53.128;8.182;2023-02-23T10:54:38;101193.91;;;7.03;100.00
12969;BME280;6549;53.128;8.182;2023-02-23T10:57:43;101202.53;;;7.05;100.00
12969;BME280;6549;53.128;8.182;2023-02-23T11:00:50;101200.84;;;7.00;100.00
12969;BME280;6549;53.128;8.182;2023-02-23T11:03:51;101199.97;;;6.96;100.00
12969;BME280;6549;53.128;8.182;2023-02-23T11:10:26;101198.38;;;6.95;100.00
12969;BME280;6549;53.128;8.182;2023-02-23T11:13:36;101204.28;;;6.97;100.00
12969;BME280;6549;53.128;8.182;2023-02-23T11:16:38;101191.84;;;7.00;100.00
12969;BME280;6549;53.128;8.182;2023-02-23T11:19:40;101196.38;;;7.08;100.00
12969;BME280;6549;53.128;8.182;2023-02-23T11:22:41;101196.22;;;7.16;100.00
12969;BME280;6549;53.128;8.182;2023-02-23T11:25:42;101195.94;;;7.21;100.00
12969;BME280;6549;53.128;8.182;2023-02-23T11:28:44;101194.09;;;7.26;100.00
12969;BME280;6549;53.128;8.182;2023-02-23T11:31:47;101193.41;;;7.29;100.00
12969;BME280;6549;53.128;8.182;2023-02-23T11:35:13;101196.13;;;7.29;100.00
12969;BME280;6549;53.128;8.182;2023-02-23T11:38:22;101197.72;;;7.30;100.00
12969;BME280;6549;53.128;8.182;2023-02-23T11:41:23;101196.22;;;7.32;100.00
12969;BME280;6549;53.128;8.182;2023-02-23T11:44:23;101197.44;;;7.35;100.00
12969;BME280;6549;53.128;8.182;2023-02-23T11:47:23;101199.75;;;7.33;100.00
12969;BME280;6549;53.128;8.182;2023-02-23T11:50:28;101203.28;;;7.33;100.00
12969;BME280;6549;53.128;8.182;2023-02-23T11:53:33;101194.63;;;7.31;100.00
12969;BME280;6549;53.128;8.182;2023-02-23T11:56:34;101192.44;;;7.21;100.00
12969;BME280;6549;53.128;8.182;2023-02-23T11:59:38;101188.19;;;7.08;100.00
12969;BME280;6549;53.128;8.182;2023-02-23T12:02:47;101188.50;;;6.91;100.00
12969;BME280;6549;53.128;8.182;2023-02-23T12:05:50;101205.59;;;6.88;100.00
12969;BME280;6549;53.128;8.182;2023-02-23T12:08:52;101207.09;;;6.85;100.00
12969;BME280;6549;53.128;8.182;2023-02-23T12:11:59;101205.16;;;6.86;100.00
12969;BME280;6549;53.128;8.182;2023-02-23T12:15:05;101201.16;;;6.83;100.00
12969;BME280;6549;53.128;8.182;2023-02-23T12:18:41;101201.97;;;6.84;100.00
12969;BME280;6549;53.128;8.182;2023-02-23T12:21:47;101201.97;;;6.84;100.00
12969;BME280;6549;53.128;8.182;2023-02-23T12:24:55;101201.16;;;6.83;100.00
12969;BME280;6549;53.128;8.182;2023-02-23T12:28:09;101199.69;;;6.86;100.00
12969;BME280;6549;53.128;8.182;2023-02-23T12:31:23;101192.00;;;6.91;100.00
12969;BME280;6549;53.128;8.182;2023-02-23T12:37:55;101190.28;;;6.99;100.00
12969;BME280;6549;53.128;8.182;2023-02-23T12:41:05;101199.38;;;7.03;100.00
12969;BME280;6549;53.128;8.182;2023-02-23T12:44:18;101197.28;;;7.12;100.00
12969;BME280;6549;53.128;8.182;2023-02-23T12:47:43;101189.69;;;7.21;100.00
12969;BME280;6549;53.128;8.182;2023-02-23T12:50:51;101194.88;;;7.26;100.00
12969;BME280;6549;53.128;8.182;2023-02-23T12:53:52;101194.28;;;7.33;100.00
12969;BME280;6549;53.128;8.182;2023-02-23T13:00:41;101198.84;;;7.44;100.00
12969;BME280;6549;53.128;8.182;2023-02-23T13:03:55;101203.72;;;7.51;100.00
12969;BME280;6549;53.128;8.182;2023-02-23T13:10:23;101187.31;;;7.51;100.00
12969;BME280;6549;53.128;8.182;2023-02-23T13:13:46;101183.59;;;7.59;100.00
12969;BME280;6549;53.128;8.182;2023-02-23T13:16:53;101184.72;;;7.58;100.00
12969;BME280;6549;53.128;8.182;2023-02-23T13:20:00;101172.72;;;7.62;100.00
12969;BME280;6549;53.128;8.182;2023-02-23T13:26:59;101173.94;;;7.81;100.00
12969;BME280;6549;53.128;8.182;2023-02-23T13:30:01;101172.53;;;7.87;100.00
12969;BME280;6549;53.128;8.182;2023-02-23T13:33:10;101178.13;;;7.94;100.00
12969;BME280;6549;53.128;8.182;2023-02-23T13:36:12;101170.19;;;7.89;100.00
12969;BME280;6549;53.128;8.182;2023-02-23T13:39:32;101174.25;;;7.95;100.00
12969;BME280;6549;53.128;8.182;2023-02-23T13:49:47;101176.06;;;7.87;100.00
12969;BME280;6549;53.128;8.182;2023-02-23T13:52:43;101170.19;;;7.89;100.00
12969;BME280;6549;53.128;8.182;2023-02-23T13:55:47;101170.38;;;7.96;100.00
12969;BME280;6549;53.128;8.182;2023-02-23T13:58:58;101173.13;;;7.96;100.00
12969;BME280;6549;53.128;8.182;2023-02-23T14:02:04;101175.56;;;8.01;100.00
12969;BME280;6549;53.128;8.182;2023-02-23T14:05:17;101170.78;;;7.98;100.00
12969;BME280;6549;53.128;8.182;2023-02-23T14:08:30;101170.44;;;7.99;100.00
12969;BME280;6549;53.128;8.182;2023-02-23T14:11:50;101170.59;;;8.06;100.00
12969;BME280;6549;53.128;8.182;2023-02-23T14:14:52;101172.19;;;8.07;100.00
12969;BME280;6549;53.128;8.182;2023-02-23T14:17:57;101173.72;;;8.05;100.00
12969;BME280;6549;53.128;8.182;2023-02-23T14:24:22;101166.38;;;8.09;100.00
12969;BME280;6549;53.128;8.182;2023-02-23T14:27:32;101168.91;;;8.18;100.00
12969;BME280;6549;53.128;8.182;2023-02-23T14:30:47;101172.50;;;8.22;100.00
12969;BME280;6549;53.128;8.182;2023-02-23T14:33:54;101170.91;;;8.21;100.00
12969;BME280;6549;53.128;8.182;2023-02-23T14:36:56;101170.03;;;8.17;100.00
12969;BME280;6549;53.128;8.182;2023-02-23T14:40:03;101165.63;;;8.12;100.00
12969;BME280;6549;53.128;8.182;2023-02-23T14:46:34;101168.66;;;8.07;100.00
12969;BME280;6549;53.128;8.182;2023-02-23T14:49:41;101171.66;;;8.02;100.00
12969;BME280;6549;53.128;8.182;2023-02-23T14:52:42;101181.41;;;7.99;100.00
12969;BME280;6549;53.128;8.182;2023-02-23T14:55:43;101173.72;;;7.89;100.00
12969;BME280;6549;53.128;8.182;2023-02-23T14:58:49;101180.66;;;7.83;100.00
12969;BME280;6549;53.128;8.182;2023-02-23T15:01:51;101177.13;;;7.83;100.00
12969;BME280;6549;53.128;8.182;2023-02-23T15:04:51;101173.94;;;7.81;100.00
12969;BME280;6549;53.128;8.182;2023-02-23T15:07:52;101173.84;;;7.77;100.00
12969;BME280;6549;53.128;8.182;2023-02-23T15:11:03;101177.94;;;7.67;100.00
12969;BME280;6549;53.128;8.182;2023-02-23T15:14:06;101178.19;;;7.62;100.00
12969;BME280;6549;53.128;8.182;2023-02-23T15:17:12;101184.31;;;7.56;100.00
12969;BME280;6549;53.128;8.182;2023-02-23T15:20:16;101202.47;;;7.33;100.00
12969;BME280;6549;53.128;8.182;2023-02-23T15:23:18;101198.75;;;7.09;100.00
12969;BME280;6549;53.128;8.182;2023-02-23T15:26:35;101213.78;;;6.88;100.00
12969;BME280;6549;53.128;8.182;2023-02-23T15:29:36;101217.56;;;6.55;100.00
12969;BME280;6549;53.128;8.182;2023-02-23T15:32:37;101222.97;;;6.40;100.00
12969;BME280;6549;53.128;8.182;2023-02-23T15:38:49;101230.09;;;6.04;100.00
12969;BME280;6549;53.128;8.182;2023-02-23T15:41:51;101245.78;;;5.95;100.00
12969;BME280;6549;53.128;8.182;2023-02-23T15:44:58;101244.72;;;5.75;100.00
12969;BME280;6549;53.128;8.182;2023-02-23T15:48:03;101237.00;;;5.65;100.00
12969;BME280;6549;53.128;8.182;2023-02-23T15:51:04;101255.63;;;5.63;100.00
12969;BME280;6549;53.128;8.182;2023-02-23T15:54:19;101247.34;;;5.60;100.00
12969;BME280;6549;53.128;8.182;2023-02-23T15:57:28;101242.91;;;5.55;100.00
12969;BME280;6549;53.128;8.182;2023-02-23T16:00:36;101242.91;;;5.43;100.00
12969;BME280;6549;53.128;8.182;2023-02-23T16:03:56;101246.28;;;5.40;100.00
12969;BME280;6549;53.128;8.182;2023-02-23T16:07:07;101250.16;;;5.39;100.00
12969;BME280;6549;53.128;8.182;2023-02-23T16:10:24;101243.78;;;5.35;100.00
12969;BME280;6549;53.128;8.182;2023-02-23T16:13:27;101254.69;;;5.35;100.00
12969;BME280;6549;53.128;8.182;2023-02-23T16:16:28;101253.31;;;5.29;100.00
12969;BME280;6549;53.128;8.182;2023-02-23T16:19:29;101257.97;;;5.28;100.00
12969;BME280;6549;53.128;8.182;2023-02-23T16:22:30;101250.59;;;5.29;100.00
12969;BME280;6549;53.128;8.182;2023-02-23T16:25:32;101253.91;;;5.34;100.00
12969;BME280;6549;53.128;8.182;2023-02-23T16:28:34;101249.25;;;5.35;100.00
12969;BME280;6549;53.128;8.182;2023-02-23T16:31:55;101249.56;;;5.33;100.00
12969;BME280;6549;53.128;8.182;2023-02-23T16:35:07;101250.38;;;5.34;100.00
12969;BME280;6549;53.128;8.182;2023-02-23T16:38:13;101246.38;;;5.31;100.00
12969;BME280;6549;53.128;8.182;2023-02-23T16:41:17;101251.72;;;5.28;100.00
12969;BME280;6549;53.128;8.182;2023-02-23T16:44:19;101254.88;;;5.18;100.00
12969;BME280;6549;53.128;8.182;2023-02-23T16:50:24;101256.66;;;5.14;100.00
12969;BME280;6549;53.128;8.182;2023-02-23T16:53:24;101258.03;;;5.08;100.00
12969;BME280;6549;53.128;8.182;2023-02-23T16:56:25;101268.09;;;4.95;100.00
12969;BME280;6549;53.128;8.182;2023-02-23T16:59:25;101263.66;;;4.90;100.00
12969;BME280;6549;53.128;8.182;2023-02-23T17:02:25;101277.91;;;4.87;100.00
12969;BME280;6549;53.128;8.182;2023-02-23T17:05:27;101271.53;;;4.83;100.00
12969;BME280;6549;53.128;8.182;2023-02-23T17:08:28;101277.34;;;4.82;100.00
12969;BME280;6549;53.128;8.182;2023-02-23T17:11:29;101286.75;;;4.84;100.00
12969;BME280;6549;53.128;8.182;2023-02-23T17:14:29;101283.56;;;4.82;100.00
12969;BME280;6549;53.128;8.182;2023-02-23T17:17:31;101280.50;;;4.84;100.00
12969;BME280;6549;53.128;8.182;2023-02-23T17:20:32;101287.56;;;4.85;100.00
12969;BME280;6549;53.128;8.182;2023-02-23T17:23:34;101274.63;;;4.82;100.00
12969;BME280;6549;53.128;8.182;2023-02-23T17:26:39;101270.50;;;4.76;100.00
12969;BME280;6549;53.128;8.182;2023-02-23T17:29:41;101278.34;;;4.77;100.00
12969;BME280;6549;53.128;8.182;2023-02-23T17:32:41;101284.22;;;4.79;100.00
12969;BME280;6549;53.128;8.182;2023-02-23T17:35:41;101281.06;;;4.77;100.00